Time;durP1;ratioP1;P1;durP2;ratioP2;P2;SDS_P1;SDS_P2;PMS_P1;PMS_P2;Temp;Humidity;BMP_temperature;BMP_pressure;BME280_temperature;BME280_humidity;BME280_pressure;Samples;Min_cycle;Max_cycle;Signal;HPM_P1;HPM_P2
2023/10/23 00:03:53;;;;;;;2.27;1.17;;;;;;;11.47;72.35;100211.34;20942499;28;20203;-81
2023/10/23 00:13:57;;;;;;;3.27;1.10;;;;;;;10.89;74.84;100212.03;20943863;28;20250;-87
2023/10/23 00:24:04;;;;;;;2.07;0.90;;;;;;;11.15;73.84;100222.06;20955590;28;20260;-80
2023/10/23 00:34:08;;;;;;;7.07;1.40;;;;;;;11.08;73.77;100218.09;20965578;28;20221;-82
2023/10/23 00:44:14;;;;;;;2.77;1.27;;;;;;;11.43;71.96;100219.66;21040331;28;20230;-79
2023/10/23 00:54:19;;;;;;;4.70;1.20;;;;;;;11.63;71.56;100228.53;21055119;28;20261;-79
2023/10/23 01:04:25;;;;;;;3.37;1.10;;;;;;;11.77;71.51;100223.50;21075969;28;20198;-83
2023/10/23 01:14:31;;;;;;;2.47;1.08;;;;;;;11.44;72.16;100224.09;21053388;28;20301;-79
2023/10/23 01:24:37;;;;;;;3.58;1.10;;;;;;;11.43;71.88;100225.28;21063188;28;20248;-78
2023/10/23 01:34:48;;;;;;;2.53;1.07;;;;;;;11.42;72.59;100223.63;21062651;28;20254;-79
2023/10/23 01:44:53;;;;;;;3.50;1.07;;;;;;;11.51;72.18;100232.03;21023517;28;20226;-79
2023/10/23 01:54:59;;;;;;;3.83;1.23;;;;;;;11.50;72.24;100238.84;21026244;28;20231;-85
2023/10/23 02:05:04;;;;;;;5.33;1.53;;;;;;;11.00;74.17;100238.66;21007934;28;20202;-79
2023/10/23 02:15:11;;;;;;;4.13;1.30;;;;;;;10.89;74.33;100245.81;20995337;28;20217;-79
2023/10/23 02:25:15;;;;;;;3.13;1.10;;;;;;;10.53;75.53;100241.31;21001309;28;20572;-78
2023/10/23 02:35:22;;;;;;;1.87;1.37;;;;;;;10.01;76.35;100260.09;20994730;28;20218;-79
2023/10/23 02:45:27;;;;;;;1.17;0.90;;;;;;;10.13;75.51;100265.94;20996316;28;20537;-80
2023/10/23 02:55:35;;;;;;;5.13;1.20;;;;;;;10.12;75.03;100267.09;20951851;28;20243;-79
2023/10/23 03:05:40;;;;;;;4.00;1.27;;;;;;;10.10;74.54;100267.41;20943662;28;20233;-80
2023/10/23 03:15:46;;;;;;;1.43;1.13;;;;;;;9.63;76.30;100273.84;21051744;28;20281;-78
2023/10/23 03:25:50;;;;;;;3.42;1.30;;;;;;;9.70;75.21;100274.22;20989169;28;20584;-79
2023/10/23 03:35:56;;;;;;;1.70;0.80;;;;;;;9.01;76.13;100282.25;21031354;28;20226;-80
2023/10/23 03:46:04;;;;;;;2.50;1.23;;;;;;;9.19;76.27;100295.25;20990769;28;20255;-83
2023/10/23 03:56:12;;;;;;;3.33;1.70;;;;;;;8.98;76.44;100285.69;20983707;28;20497;-79
2023/10/23 04:06:17;;;;;;;6.13;1.40;;;;;;;8.44;77.64;100292.31;20983095;28;20191;-78
2023/10/23 04:16:21;;;;;;;4.47;1.50;;;;;;;8.76;76.52;100292.13;20987917;28;20231;-79
2023/10/23 04:26:24;;;;;;;2.60;1.60;;;;;;;8.57;75.92;100297.94;20981025;28;20294;-78
2023/10/23 04:36:29;;;;;;;3.50;1.40;;;;;;;8.42;75.26;100300.22;21008633;28;20215;-78
2023/10/23 04:46:32;;;;;;;2.20;1.60;;;;;;;8.68;74.28;100296.53;21039949;28;20285;-77
2023/10/23 04:56:37;;;;;;;2.47;1.87;;;;;;;8.47;75.95;100309.31;21022958;28;20288;-78
2023/10/23 05:06:40;;;;;;;4.70;1.97;;;;;;;8.50;77.49;100308.69;21051922;28;20208;-79
2023/10/23 05:16:45;;;;;;;4.23;2.47;;;;;;;8.66;75.92;100312.00;21060869;28;20219;-78
2023/10/23 05:26:48;;;;;;;5.33;2.87;;;;;;;8.90;76.94;100311.72;21042146;28;20515;-78
2023/10/23 05:36:56;;;;;;;4.23;3.03;;;;;;;8.84;76.66;100299.78;21053012;28;20210;-78
2023/10/23 05:47:01;;;;;;;6.97;4.60;;;;;;;9.23;75.08;100315.91;21053715;28;20222;-78
2023/10/23 05:57:06;;;;;;;6.78;5.28;;;;;;;9.00;77.98;100312.28;21052108;28;20283;-79
2023/10/23 06:07:09;;;;;;;8.90;5.33;;;;;;;9.16;76.33;100315.53;21055591;28;20307;-78
2023/10/23 06:17:13;;;;;;;8.43;4.73;;;;;;;8.81;76.33;100316.44;21046716;28;20227;-79
2023/10/23 06:27:18;;;;;;;7.47;5.83;;;;;;;8.76;75.99;100327.78;21047616;28;20207;-79
2023/10/23 06:37:23;;;;;;;7.80;5.37;;;;;;;9.17;75.94;100325.63;21043959;28;20222;-80
2023/10/23 06:47:26;;;;;;;10.97;6.03;;;;;;;9.36;75.72;100331.84;21083788;28;20233;-86
2023/10/23 06:57:30;;;;;;;11.47;6.80;;;;;;;8.99;78.20;100332.25;21077463;28;20276;-86
2023/10/23 07:07:33;;;;;;;9.53;6.03;;;;;;;9.37;77.00;100319.47;21063487;28;20201;-84
2023/10/23 07:17:43;;;;;;;11.57;7.93;;;;;;;9.96;75.79;100325.75;21064521;28;20222;-84
2023/10/23 07:27:48;;;;;;;8.47;6.97;;;;;;;10.24;75.21;100329.16;21077937;28;20197;-85
2023/10/23 07:37:53;;;;;;;7.53;5.33;;;;;;;10.48;74.54;100335.16;21065589;28;20584;-80
2023/10/23 07:47:57;;;;;;;8.33;4.90;;;;;;;10.75;73.67;100322.81;21057368;28;20190;-80
2023/10/23 07:58:02;;;;;;;7.55;5.13;;;;;;;10.82;71.62;100314.69;21053075;28;20779;-90
2023/10/23 08:08:08;;;;;;;5.83;4.43;;;;;;;10.95;71.82;100315.66;21071497;28;20210;-87
2023/10/23 08:18:12;;;;;;;10.20;4.40;;;;;;;11.01;70.51;100313.53;21064698;28;20214;-82
2023/10/23 08:28:18;;;;;;;9.75;3.25;;;;;;;11.30;69.74;100313.66;21050030;28;20199;-80
2023/10/23 08:38:25;;;;;;;6.23;2.93;;;;;;;11.81;66.51;100297.78;21084054;28;20700;-90
2023/10/23 08:48:28;;;;;;;3.27;2.90;;;;;;;10.98;67.77;100286.84;21060023;28;20220;-80
2023/10/23 08:58:34;;;;;;;5.65;2.40;;;;;;;11.63;66.37;100290.56;21064114;28;20625;-92
2023/10/23 09:08:37;;;;;;;5.50;2.40;;;;;;;11.68;65.25;100284.75;21073514;28;20224;-80
2023/10/23 09:18:49;;;;;;;4.87;2.20;;;;;;;11.31;66.16;100289.09;21094727;28;20214;-80
2023/10/23 09:28:52;;;;;;;5.90;2.70;;;;;;;11.88;65.49;100284.81;21104647;28;20233;-81
2023/10/23 09:39:01;;;;;;;2.93;2.33;;;;;;;11.76;65.42;100276.25;21108999;28;20234;-80
2023/10/23 09:49:05;;;;;;;3.57;2.30;;;;;;;11.94;64.19;100268.53;21103972;28;20211;-80
2023/10/23 09:59:11;;;;;;;4.97;2.07;;;;;;;12.34;62.79;100260.50;21089950;28;20219;-79
2023/10/23 10:09:14;;;;;;;3.05;2.08;;;;;;;12.22;63.88;100260.38;21074549;28;20187;-84
2023/10/23 10:19:20;;;;;;;4.22;2.00;;;;;;;12.61;62.55;100245.84;21066488;28;20260;-88
2023/10/23 10:29:23;;;;;;;4.35;2.03;;;;;;;13.09;61.86;100240.75;21088866;28;20198;-80
2023/10/23 10:39:58;;;;;;;4.90;1.27;;;;;;;12.93;58.06;100221.63;21092641;28;20234;-91
2023/10/23 10:50:00;;;;;;;2.42;0.80;;;;;;;13.25;58.13;100205.81;21058927;28;20215;-80
2023/10/23 11:00:05;;;;;;;2.45;1.27;;;;;;;13.01;58.63;100199.28;21083609;28;20302;-80
2023/10/23 11:10:09;;;;;;;3.30;1.45;;;;;;;13.01;58.69;100188.81;21079685;28;20195;-84
2023/10/23 11:20:15;;;;;;;3.17;1.20;;;;;;;12.99;57.65;100165.75;21062529;28;20222;-91
2023/10/23 11:30:18;;;;;;;2.00;1.10;;;;;;;13.65;58.98;100159.94;21061687;28;20207;-87
2023/10/23 11:40:23;;;;;;;3.40;0.93;;;;;;;13.85;56.24;100146.88;21061235;28;20321;-87
2023/10/23 11:50:27;;;;;;;6.15;1.63;;;;;;;13.39;59.26;100137.69;21083787;28;20237;-80
2023/10/23 12:00:42;;;;;;;4.30;1.33;;;;;;;13.53;58.15;100117.53;21073206;28;20237;-82
2023/10/23 12:10:45;;;;;;;2.85;1.38;;;;;;;13.60;57.81;100109.31;21072616;28;20285;-86
2023/10/23 12:20:48;;;;;;;2.17;0.80;;;;;;;14.01;59.73;100096.88;21034163;28;20246;-80
2023/10/23 12:30:50;;;;;;;1.10;1.00;;;;;;;12.98;60.40;100083.03;21024478;28;20587;-89
2023/10/23 12:40:54;;;;;;;1.90;0.55;;;;;;;13.43;57.91;100073.63;21038309;28;20261;-83
2023/10/23 12:50:55;;;;;;;1.15;0.50;;;;;;;13.24;57.76;100059.25;21043995;28;20218;-80
2023/10/23 13:00:59;;;;;;;2.00;0.50;;;;;;;12.81;59.58;100060.63;21050649;28;20305;-80
2023/10/23 13:11:01;;;;;;;1.30;0.40;;;;;;;13.19;56.98;100059.47;21054548;28;20195;-80
2023/10/23 13:21:04;;;;;;;2.08;0.50;;;;;;;12.62;58.59;100046.22;21050295;28;20271;-79
2023/10/23 13:31:06;;;;;;;1.45;0.50;;;;;;;13.51;54.85;100016.13;21057068;28;20661;-79
2023/10/23 13:41:09;;;;;;;1.40;0.27;;;;;;;13.13;58.47;99998.72;21058289;28;20225;-79
2023/10/23 13:51:11;;;;;;;2.25;0.70;;;;;;;12.49;54.69;99979.66;21063293;28;20702;-80
2023/10/23 14:01:14;;;;;;;1.93;0.43;;;;;;;12.81;58.85;99964.63;21063568;28;20739;-83
2023/10/23 14:11:16;;;;;;;3.00;0.30;;;;;;;13.41;55.87;99943.13;21055845;28;20495;-80
2023/10/23 14:21:19;;;;;;;1.03;0.40;;;;;;;13.40;56.71;99929.34;21051122;28;20635;-80
2023/10/23 14:31:21;;;;;;;2.37;0.50;;;;;;;13.00;54.14;99904.69;21053291;28;20289;-80
2023/10/23 14:41:24;;;;;;;0.30;0.30;;;;;;;13.01;56.31;99892.22;21023754;28;20226;-80
2023/10/23 14:51:26;;;;;;;1.75;0.35;;;;;;;12.50;58.94;99882.53;20971681;28;20219;-80
2023/10/23 15:01:30;;;;;;;2.00;0.53;;;;;;;12.40;55.30;99863.22;20966142;28;20226;-79
2023/10/23 15:11:32;;;;;;;2.65;0.63;;;;;;;11.86;59.70;99843.66;20944421;28;20619;-79
2023/10/23 15:21:35;;;;;;;1.07;0.40;;;;;;;11.93;59.61;99824.19;20967683;28;20227;-79
2023/10/23 15:31:36;;;;;;;3.67;0.70;;;;;;;11.84;60.04;99800.88;20960772;28;20201;-80
2023/10/23 15:41:40;;;;;;;2.05;0.47;;;;;;;12.21;59.23;99768.69;20956880;28;20310;-78
2023/10/23 15:51:42;;;;;;;1.83;0.70;;;;;;;11.98;60.91;99761.06;20976896;28;20264;-79
2023/10/23 16:01:46;;;;;;;4.33;0.77;;;;;;;11.63;61.96;99766.34;20970217;28;20223;-79
2023/10/23 16:11:47;;;;;;;3.57;0.63;;;;;;;11.79;61.05;99770.13;20962400;28;20207;-78
2023/10/23 16:21:50;;;;;;;2.10;0.70;;;;;;;11.87;60.86;99766.34;20961442;28;20229;-78
2023/10/23 16:31:53;;;;;;;3.20;0.70;;;;;;;11.66;61.86;99755.19;20962686;28;20194;-81
2023/10/23 16:41:56;;;;;;;2.63;0.80;;;;;;;11.80;61.30;99778.22;20955584;28;20233;-78
2023/10/23 16:51:57;;;;;;;6.20;0.90;;;;;;;11.86;62.08;99807.00;20963940;28;20832;-78
2023/10/23 17:02:01;;;;;;;3.50;0.83;;;;;;;11.69;62.23;99802.41;20982089;28;20624;-78
2023/10/23 17:12:02;;;;;;;4.03;0.97;;;;;;;11.90;61.42;99811.59;20973605;28;20287;-77
2023/10/23 17:22:06;;;;;;;2.15;1.17;;;;;;;11.67;66.21;99796.28;20985877;28;20222;-77
2023/10/23 17:32:09;;;;;;;3.93;0.97;;;;;;;11.39;69.31;99767.91;20976370;28;20206;-78
2023/10/23 17:42:12;;;;;;;4.70;1.13;;;;;;;11.28;73.23;99744.16;21031642;28;20214;-80
2023/10/23 17:52:16;;;;;;;5.65;1.40;;;;;;;11.05;74.56;99711.94;21061702;28;20830;-77
2023/10/23 18:02:19;;;;;;;4.65;1.35;;;;;;;10.90;75.69;99664.75;21050329;28;20219;-78
2023/10/23 18:12:22;;;;;;;5.10;1.30;;;;;;;10.66;76.81;99649.41;21057336;28;20213;-78
2023/10/23 18:22:44;;;;;;;3.27;1.20;;;;;;;10.91;74.75;99632.63;21074439;28;20310;-89
2023/10/23 18:32:47;;;;;;;7.93;1.93;;;;;;;10.76;76.39;99649.00;21073600;28;20286;-83
2023/10/23 18:42:56;;;;;;;4.72;1.77;;;;;;;10.94;75.11;99623.47;21026474;28;20273;-85
2023/10/23 18:52:59;;;;;;;5.22;1.52;;;;;;;10.82;75.91;99647.59;20988547;28;20216;-82
2023/10/23 19:03:02;;;;;;;2.90;1.03;;;;;;;10.78;76.21;99634.59;20977533;28;20246;-87
2023/10/23 19:13:05;;;;;;;5.67;1.70;;;;;;;10.85;75.75;99624.38;20982067;28;20504;-89
2023/10/23 19:23:09;;;;;;;5.80;1.95;;;;;;;10.90;76.53;99614.91;20979994;28;20614;-88
2023/10/23 19:33:12;;;;;;;5.37;1.60;;;;;;;11.13;75.93;99618.09;20973337;28;20191;-82
2023/10/23 19:43:17;;;;;;;6.57;2.00;;;;;;;10.98;76.22;99594.28;21002899;28;20703;-88
2023/10/23 19:53:19;;;;;;;4.30;1.90;;;;;;;10.91;77.66;99593.22;21037117;28;20926;-78
2023/10/23 20:03:23;;;;;;;5.03;2.63;;;;;;;10.75;76.88;99568.56;21042120;28;20310;-78
2023/10/23 20:13:24;;;;;;;3.80;1.60;;;;;;;10.89;77.90;99550.53;21038342;28;20238;-79
2023/10/23 20:23:27;;;;;;;3.50;1.83;;;;;;;10.74;78.70;99540.75;21043579;28;20229;-88
2023/10/23 20:33:29;;;;;;;6.77;2.13;;;;;;;10.38;80.58;99522.59;21023469;28;20203;-79
2023/10/23 20:43:32;;;;;;;3.40;1.87;;;;;;;10.66;78.05;99494.66;21053692;28;20313;-77
2023/10/23 20:53:34;;;;;;;6.83;2.10;;;;;;;10.59;80.22;99488.78;21045923;28;20520;-77
2023/10/23 21:03:37;;;;;;;8.60;1.95;;;;;;;10.81;79.04;99474.28;21050519;28;20224;-78
2023/10/23 21:13:39;;;;;;;5.07;2.03;;;;;;;10.22;81.29;99442.06;21039311;28;20499;-78
2023/10/23 21:23:42;;;;;;;4.47;1.83;;;;;;;10.25;81.31;99430.94;21072087;28;20779;-77
2023/10/23 21:33:44;;;;;;;4.37;2.20;;;;;;;10.53;79.53;99402.94;21021396;28;20195;-78
2023/10/23 21:43:47;;;;;;;2.20;1.90;;;;;;;10.24;80.45;99391.94;21081829;28;20230;-77
2023/10/23 21:53:50;;;;;;;2.47;1.63;;;;;;;10.56;79.82;99376.94;21096644;28;20213;-78
2023/10/23 22:03:53;;;;;;;5.07;1.47;;;;;;;10.11;82.17;99372.25;21079413;28;20197;-77
2023/10/23 22:13:56;;;;;;;3.53;1.27;;;;;;;10.67;79.60;99368.88;21085324;28;20551;-78
2023/10/23 22:23:59;;;;;;;6.43;1.73;;;;;;;10.79;78.79;99366.84;21081718;28;20217;-78
2023/10/23 22:34:01;;;;;;;5.77;1.93;;;;;;;10.99;77.13;99347.38;21086583;28;20277;-79
2023/10/23 22:44:05;;;;;;;4.70;1.70;;;;;;;10.55;79.79;99355.59;21065237;28;20317;-78
2023/10/23 22:54:07;;;;;;;2.80;1.43;;;;;;;10.65;79.40;99335.47;21085223;28;20695;-78
2023/10/23 23:04:12;;;;;;;4.20;1.83;;;;;;;10.45;81.72;99317.53;21062616;28;20222;-77
2023/10/23 23:14:14;;;;;;;6.70;1.30;;;;;;;10.92;78.84;99302.09;21074075;28;20257;-79
2023/10/23 23:24:17;;;;;;;4.60;1.27;;;;;;;11.02;77.39;99284.72;21037037;28;20282;-79
2023/10/23 23:34:19;;;;;;;2.03;0.98;;;;;;;10.82;77.85;99278.91;21101359;28;20237;-78
2023/10/23 23:44:22;;;;;;;2.20;0.70;;;;;;;10.94;76.81;99288.50;20995571;28;20238;-78
2023/10/23 23:54:23;;;;;;;3.47;0.80;;;;;;;11.53;74.29;99288.59;20970451;28;20229;-78
